sensor_id;sensor_type;location;lat;lon;timestamp;pressure;altitude;pressure_sealevel;temperature
54746;BMP180;40640;48.130;11.356;2022-11-20T00:02:08;95006.00;;;8.30
54746;BMP180;40640;48.130;11.356;2022-11-20T00:06:12;95000.00;;;8.10
54746;BMP180;40640;48.130;11.356;2022-11-20T00:10:15;95001.00;;;8.10
54746;BMP180;40640;48.130;11.356;2022-11-20T00:14:19;95004.00;;;8.10
54746;BMP180;40640;48.130;11.356;2022-11-20T00:18:22;95007.00;;;7.90
54746;BMP180;40640;48.130;11.356;2022-11-20T00:22:25;95008.00;;;8.10
54746;BMP180;40640;48.130;11.356;2022-11-20T00:26:28;95012.00;;;7.90
54746;BMP180;40640;48.130;11.356;2022-11-20T00:30:33;95006.00;;;8.10
54746;BMP180;40640;48.130;11.356;2022-11-20T00:34:35;95009.00;;;7.90
54746;BMP180;40640;48.130;11.356;2022-11-20T00:38:38;95010.00;;;8.00
54746;BMP180;40640;48.130;11.356;2022-11-20T00:42:41;95015.00;;;8.20
54746;BMP180;40640;48.130;11.356;2022-11-20T00:46:45;95005.00;;;8.40
54746;BMP180;40640;48.130;11.356;2022-11-20T00:50:48;95009.00;;;7.90
54746;BMP180;40640;48.130;11.356;2022-11-20T00:54:50;95019.00;;;8.00
54746;BMP180;40640;48.130;11.356;2022-11-20T00:58:53;95020.00;;;8.30
54746;BMP180;40640;48.130;11.356;2022-11-20T01:02:57;95021.00;;;8.00
54746;BMP180;40640;48.130;11.356;2022-11-20T01:07:00;95030.00;;;8.00
54746;BMP180;40640;48.130;11.356;2022-11-20T01:11:05;95032.00;;;8.00
54746;BMP180;40640;48.130;11.356;2022-11-20T01:15:08;95035.00;;;8.20
54746;BMP180;40640;48.130;11.356;2022-11-20T01:19:14;95040.00;;;8.20
54746;BMP180;40640;48.130;11.356;2022-11-20T01:23:18;95043.00;;;7.90
54746;BMP180;40640;48.130;11.356;2022-11-20T01:27:21;95039.00;;;8.00
54746;BMP180;40640;48.130;11.356;2022-11-20T01:31:26;95039.00;;;8.10
54746;BMP180;40640;48.130;11.356;2022-11-20T01:35:30;95038.00;;;8.10
54746;BMP180;40640;48.130;11.356;2022-11-20T01:39:32;95049.00;;;8.10
54746;BMP180;40640;48.130;11.356;2022-11-20T01:43:36;95056.00;;;8.10
54746;BMP180;40640;48.130;11.356;2022-11-20T01:47:40;95041.00;;;8.10
54746;BMP180;40640;48.130;11.356;2022-11-20T01:51:50;95052.00;;;8.20
54746;BMP180;40640;48.130;11.356;2022-11-20T01:55:56;95050.00;;;8.10
54746;BMP180;40640;48.130;11.356;2022-11-20T02:00:05;95044.00;;;7.90
54746;BMP180;40640;48.130;11.356;2022-11-20T02:04:15;95053.00;;;8.00
54746;BMP180;40640;48.130;11.356;2022-11-20T02:08:19;95059.00;;;8.00
54746;BMP180;40640;48.130;11.356;2022-11-20T02:12:23;95060.00;;;8.00
54746;BMP180;40640;48.130;11.356;2022-11-20T02:16:45;95061.00;;;7.90
54746;BMP180;40640;48.130;11.356;2022-11-20T02:20:52;95057.00;;;7.80
54746;BMP180;40640;48.130;11.356;2022-11-20T02:24:58;95059.00;;;7.80
54746;BMP180;40640;48.130;11.356;2022-11-20T02:29:02;95055.00;;;7.80
54746;BMP180;40640;48.130;11.356;2022-11-20T02:33:05;95053.00;;;7.60
54746;BMP180;40640;48.130;11.356;2022-11-20T02:37:08;95051.00;;;7.70
54746;BMP180;40640;48.130;11.356;2022-11-20T02:41:12;95062.00;;;7.80
54746;BMP180;40640;48.130;11.356;2022-11-20T02:45:15;95048.00;;;7.60
54746;BMP180;40640;48.130;11.356;2022-11-20T02:49:18;95053.00;;;7.70
54746;BMP180;40640;48.130;11.356;2022-11-20T02:53:21;95056.00;;;7.90
54746;BMP180;40640;48.130;11.356;2022-11-20T02:57:25;95054.00;;;7.70
54746;BMP180;40640;48.130;11.356;2022-11-20T03:01:27;95047.00;;;7.80
54746;BMP180;40640;48.130;11.356;2022-11-20T03:05:30;95045.00;;;7.80
54746;BMP180;40640;48.130;11.356;2022-11-20T03:09:33;95045.00;;;7.80
54746;BMP180;40640;48.130;11.356;2022-11-20T03:13:37;95044.00;;;7.70
54746;BMP180;40640;48.130;11.356;2022-11-20T03:17:40;95040.00;;;7.70
54746;BMP180;40640;48.130;11.356;2022-11-20T03:21:43;95048.00;;;7.60
54746;BMP180;40640;48.130;11.356;2022-11-20T03:25:45;95037.00;;;7.80
54746;BMP180;40640;48.130;11.356;2022-11-20T03:29:49;95033.00;;;7.60
54746;BMP180;40640;48.130;11.356;2022-11-20T03:33:53;95030.00;;;7.60
54746;BMP180;40640;48.130;11.356;2022-11-20T03:37:57;95043.00;;;7.60
54746;BMP180;40640;48.130;11.356;2022-11-20T03:41:59;95042.00;;;7.50
54746;BMP180;40640;48.130;11.356;2022-11-20T03:46:04;95046.00;;;7.50
54746;BMP180;40640;48.130;11.356;2022-11-20T03:50:08;95040.00;;;7.40
54746;BMP180;40640;48.130;11.356;2022-11-20T03:54:11;95042.00;;;7.60
54746;BMP180;40640;48.130;11.356;2022-11-20T03:58:14;95048.00;;;7.60
54746;BMP180;40640;48.130;11.356;2022-11-20T04:02:18;95044.00;;;7.60
54746;BMP180;40640;48.130;11.356;2022-11-20T04:06:22;95049.00;;;7.50
54746;BMP180;40640;48.130;11.356;2022-11-20T04:10:25;95043.00;;;7.60
54746;BMP180;40640;48.130;11.356;2022-11-20T04:14:28;95046.00;;;7.60
54746;BMP180;40640;48.130;11.356;2022-11-20T04:18:32;95041.00;;;7.50
54746;BMP180;40640;48.130;11.356;2022-11-20T04:22:35;95035.00;;;7.40
54746;BMP180;40640;48.130;11.356;2022-11-20T04:26:38;95033.00;;;7.50
54746;BMP180;40640;48.130;11.356;2022-11-20T04:30:41;95038.00;;;7.40
54746;BMP180;40640;48.130;11.356;2022-11-20T04:34:45;95039.00;;;7.40
54746;BMP180;40640;48.130;11.356;2022-11-20T04:38:50;95046.00;;;7.40
54746;BMP180;40640;48.130;11.356;2022-11-20T04:42:57;95044.00;;;7.30
54746;BMP180;40640;48.130;11.356;2022-11-20T04:47:00;95047.00;;;7.40
54746;BMP180;40640;48.130;11.356;2022-11-20T04:51:05;95049.00;;;7.30
54746;BMP180;40640;48.130;11.356;2022-11-20T04:55:08;95045.00;;;7.40
54746;BMP180;40640;48.130;11.356;2022-11-20T04:59:10;95041.00;;;7.40
54746;BMP180;40640;48.130;11.356;2022-11-20T05:03:13;95034.00;;;7.30
54746;BMP180;40640;48.130;11.356;2022-11-20T05:07:17;95033.00;;;7.40
54746;BMP180;40640;48.130;11.356;2022-11-20T05:11:21;95039.00;;;7.30
54746;BMP180;40640;48.130;11.356;2022-11-20T05:15:24;95037.00;;;7.30
54746;BMP180;40640;48.130;11.356;2022-11-20T05:19:26;95042.00;;;7.30
54746;BMP180;40640;48.130;11.356;2022-11-20T05:23:31;95048.00;;;7.20
54746;BMP180;40640;48.130;11.356;2022-11-20T05:27:34;95046.00;;;7.20
54746;BMP180;40640;48.130;11.356;2022-11-20T05:31:38;95053.00;;;7.20
54746;BMP180;40640;48.130;11.356;2022-11-20T05:35:41;95052.00;;;7.30
54746;BMP180;40640;48.130;11.356;2022-11-20T05:39:45;95047.00;;;7.20
54746;BMP180;40640;48.130;11.356;2022-11-20T05:43:49;95045.00;;;7.30
54746;BMP180;40640;48.130;11.356;2022-11-20T05:47:52;95043.00;;;7.30
54746;BMP180;40640;48.130;11.356;2022-11-20T05:51:54;95041.00;;;7.30
54746;BMP180;40640;48.130;11.356;2022-11-20T05:55:59;95041.00;;;7.10
54746;BMP180;40640;48.130;11.356;2022-11-20T06:00:03;95044.00;;;7.40
54746;BMP180;40640;48.130;11.356;2022-11-20T06:04:05;95047.00;;;7.30
54746;BMP180;40640;48.130;11.356;2022-11-20T06:08:08;95038.00;;;7.30
54746;BMP180;40640;48.130;11.356;2022-11-20T06:12:12;95039.00;;;7.10
54746;BMP180;40640;48.130;11.356;2022-11-20T06:16:17;95045.00;;;7.30
54746;BMP180;40640;48.130;11.356;2022-11-20T06:20:20;95047.00;;;7.00
54746;BMP180;40640;48.130;11.356;2022-11-20T06:24:23;95053.00;;;6.90
54746;BMP180;40640;48.130;11.356;2022-11-20T06:28:28;95042.00;;;7.00
54746;BMP180;40640;48.130;11.356;2022-11-20T06:32:31;95046.00;;;7.00
54746;BMP180;40640;48.130;11.356;2022-11-20T06:36:33;95055.00;;;7.00
54746;BMP180;40640;48.130;11.356;2022-11-20T06:40:39;95067.00;;;7.00
54746;BMP180;40640;48.130;11.356;2022-11-20T06:44:44;95069.00;;;7.00
54746;BMP180;40640;48.130;11.356;2022-11-20T06:48:47;95065.00;;;7.00
54746;BMP180;40640;48.130;11.356;2022-11-20T06:52:50;95064.00;;;7.00
54746;BMP180;40640;48.130;11.356;2022-11-20T06:56:53;95071.00;;;6.90
54746;BMP180;40640;48.130;11.356;2022-11-20T07:00:59;95080.00;;;7.00
54746;BMP180;40640;48.130;11.356;2022-11-20T07:05:02;95076.00;;;7.10
54746;BMP180;40640;48.130;11.356;2022-11-20T07:09:05;95084.00;;;7.10
54746;BMP180;40640;48.130;11.356;2022-11-20T07:13:22;95082.00;;;7.10
54746;BMP180;40640;48.130;11.356;2022-11-20T07:17:26;95083.00;;;7.20
54746;BMP180;40640;48.130;11.356;2022-11-20T07:21:29;95085.00;;;7.30
54746;BMP180;40640;48.130;11.356;2022-11-20T07:25:31;95086.00;;;7.20
54746;BMP180;40640;48.130;11.356;2022-11-20T07:29:34;95089.00;;;7.30
54746;BMP180;40640;48.130;11.356;2022-11-20T07:33:38;95087.00;;;7.40
54746;BMP180;40640;48.130;11.356;2022-11-20T07:37:41;95096.00;;;7.30
54746;BMP180;40640;48.130;11.356;2022-11-20T07:41:44;95097.00;;;7.40
54746;BMP180;40640;48.130;11.356;2022-11-20T07:45:46;95093.00;;;7.20
54746;BMP180;40640;48.130;11.356;2022-11-20T07:49:51;95089.00;;;7.30
54746;BMP180;40640;48.130;11.356;2022-11-20T07:53:53;95099.00;;;7.40
54746;BMP180;40640;48.130;11.356;2022-11-20T07:57:56;95097.00;;;7.30
54746;BMP180;40640;48.130;11.356;2022-11-20T08:01:59;95091.00;;;7.30
54746;BMP180;40640;48.130;11.356;2022-11-20T08:06:04;95101.00;;;7.50
54746;BMP180;40640;48.130;11.356;2022-11-20T08:10:08;95098.00;;;7.40
54746;BMP180;40640;48.130;11.356;2022-11-20T08:14:11;95107.00;;;7.50
54746;BMP180;40640;48.130;11.356;2022-11-20T08:18:13;95109.00;;;7.50
54746;BMP180;40640;48.130;11.356;2022-11-20T08:22:33;95109.00;;;7.60
54746;BMP180;40640;48.130;11.356;2022-11-20T08:26:37;95108.00;;;7.70
54746;BMP180;40640;48.130;11.356;2022-11-20T08:30:41;95110.00;;;7.60
54746;BMP180;40640;48.130;11.356;2022-11-20T08:34:43;95103.00;;;7.60
54746;BMP180;40640;48.130;11.356;2022-11-20T08:38:49;95108.00;;;7.80
54746;BMP180;40640;48.130;11.356;2022-11-20T08:42:52;95113.00;;;8.00
54746;BMP180;40640;48.130;11.356;2022-11-20T08:46:55;95110.00;;;8.20
54746;BMP180;40640;48.130;11.356;2022-11-20T08:50:58;95110.00;;;8.30
54746;BMP180;40640;48.130;11.356;2022-11-20T08:55:04;95119.00;;;8.40
54746;BMP180;40640;48.130;11.356;2022-11-20T08:59:06;95101.00;;;8.40
54746;BMP180;40640;48.130;11.356;2022-11-20T09:03:29;95102.00;;;8.50
54746;BMP180;40640;48.130;11.356;2022-11-20T09:07:33;95108.00;;;8.60
54746;BMP180;40640;48.130;11.356;2022-11-20T09:11:37;95103.00;;;8.60
54746;BMP180;40640;48.130;11.356;2022-11-20T09:15:40;95100.00;;;8.60
54746;BMP180;40640;48.130;11.356;2022-11-20T09:19:43;95101.00;;;8.50
54746;BMP180;40640;48.130;11.356;2022-11-20T09:23:46;95099.00;;;8.40
54746;BMP180;40640;48.130;11.356;2022-11-20T09:27:55;95094.00;;;8.40
54746;BMP180;40640;48.130;11.356;2022-11-20T09:31:58;95083.00;;;8.50
54746;BMP180;40640;48.130;11.356;2022-11-20T09:36:01;95099.00;;;8.50
54746;BMP180;40640;48.130;11.356;2022-11-20T09:40:05;95082.00;;;8.50
54746;BMP180;40640;48.130;11.356;2022-11-20T09:44:23;95086.00;;;8.70
54746;BMP180;40640;48.130;11.356;2022-11-20T09:48:38;95083.00;;;9.00
54746;BMP180;40640;48.130;11.356;2022-11-20T09:53:03;95078.00;;;9.80
54746;BMP180;40640;48.130;11.356;2022-11-20T09:57:11;95088.00;;;11.50
54746;BMP180;40640;48.130;11.356;2022-11-20T10:01:18;95083.00;;;11.80
54746;BMP180;40640;48.130;11.356;2022-11-20T10:05:25;95090.00;;;11.90
54746;BMP180;40640;48.130;11.356;2022-11-20T10:09:31;95096.00;;;12.90
54746;BMP180;40640;48.130;11.356;2022-11-20T10:13:40;95097.00;;;12.70
54746;BMP180;40640;48.130;11.356;2022-11-20T10:17:59;95095.00;;;12.90
54746;BMP180;40640;48.130;11.356;2022-11-20T10:22:12;95081.00;;;12.40
54746;BMP180;40640;48.130;11.356;2022-11-20T10:26:25;95091.00;;;13.50
54746;BMP180;40640;48.130;11.356;2022-11-20T10:30:31;95093.00;;;14.10
54746;BMP180;40640;48.130;11.356;2022-11-20T10:34:45;95102.00;;;13.80
54746;BMP180;40640;48.130;11.356;2022-11-20T10:38:53;95100.00;;;13.10
54746;BMP180;40640;48.130;11.356;2022-11-20T10:42:59;95097.00;;;12.50
54746;BMP180;40640;48.130;11.356;2022-11-20T10:47:04;95097.00;;;12.20
54746;BMP180;40640;48.130;11.356;2022-11-20T10:51:18;95094.00;;;12.10
54746;BMP180;40640;48.130;11.356;2022-11-20T10:55:30;95106.00;;;12.30
54746;BMP180;40640;48.130;11.356;2022-11-20T10:59:45;95102.00;;;12.10
54746;BMP180;40640;48.130;11.356;2022-11-20T11:03:55;95092.00;;;11.80
54746;BMP180;40640;48.130;11.356;2022-11-20T11:07:59;95093.00;;;11.60
54746;BMP180;40640;48.130;11.356;2022-11-20T11:12:06;95090.00;;;11.40
54746;BMP180;40640;48.130;11.356;2022-11-20T11:16:20;95087.00;;;11.10
54746;BMP180;40640;48.130;11.356;2022-11-20T11:20:25;95078.00;;;10.80
54746;BMP180;40640;48.130;11.356;2022-11-20T11:24:30;95077.00;;;10.70
54746;BMP180;40640;48.130;11.356;2022-11-20T11:28:53;95072.00;;;10.60
54746;BMP180;40640;48.130;11.356;2022-11-20T11:33:03;95069.00;;;10.70
54746;BMP180;40640;48.130;11.356;2022-11-20T11:37:13;95067.00;;;10.70
54746;BMP180;40640;48.130;11.356;2022-11-20T11:41:22;95071.00;;;10.90
54746;BMP180;40640;48.130;11.356;2022-11-20T11:45:26;95060.00;;;11.70
54746;BMP180;40640;48.130;11.356;2022-11-20T11:49:29;95067.00;;;12.20
54746;BMP180;40640;48.130;11.356;2022-11-20T11:53:41;95069.00;;;12.00
54746;BMP180;40640;48.130;11.356;2022-11-20T11:57:49;95074.00;;;11.50
54746;BMP180;40640;48.130;11.356;2022-11-20T12:01:57;95070.00;;;11.10
54746;BMP180;40640;48.130;11.356;2022-11-20T12:06:07;95068.00;;;10.80
54746;BMP180;40640;48.130;11.356;2022-11-20T12:10:17;95063.00;;;10.50
54746;BMP180;40640;48.130;11.356;2022-11-20T12:14:30;95071.00;;;10.20
54746;BMP180;40640;48.130;11.356;2022-11-20T12:18:36;95058.00;;;10.20
54746;BMP180;40640;48.130;11.356;2022-11-20T12:22:43;95066.00;;;10.10
54746;BMP180;40640;48.130;11.356;2022-11-20T12:26:57;95055.00;;;9.80
54746;BMP180;40640;48.130;11.356;2022-11-20T12:31:27;95071.00;;;9.80
54746;BMP180;40640;48.130;11.356;2022-11-20T12:35:44;95052.00;;;9.60
54746;BMP180;40640;48.130;11.356;2022-11-20T12:39:49;95058.00;;;9.60
54746;BMP180;40640;48.130;11.356;2022-11-20T12:44:00;95056.00;;;9.50
54746;BMP180;40640;48.130;11.356;2022-11-20T12:48:34;95059.00;;;9.40
54746;BMP180;40640;48.130;11.356;2022-11-20T12:52:48;95062.00;;;9.40
54746;BMP180;40640;48.130;11.356;2022-11-20T12:57:03;95062.00;;;9.40
54746;BMP180;40640;48.130;11.356;2022-11-20T13:01:24;95062.00;;;9.40
54746;BMP180;40640;48.130;11.356;2022-11-20T13:05:52;95055.00;;;9.20
54746;BMP180;40640;48.130;11.356;2022-11-20T13:09:58;95049.00;;;9.10
54746;BMP180;40640;48.130;11.356;2022-11-20T13:14:13;95039.00;;;9.10
54746;BMP180;40640;48.130;11.356;2022-11-20T13:18:19;95046.00;;;9.00
54746;BMP180;40640;48.130;11.356;2022-11-20T13:22:27;95031.00;;;9.00
54746;BMP180;40640;48.130;11.356;2022-11-20T13:26:30;95022.00;;;8.80
54746;BMP180;40640;48.130;11.356;2022-11-20T13:30:34;95030.00;;;8.80
54746;BMP180;40640;48.130;11.356;2022-11-20T13:34:37;95023.00;;;8.80
54746;BMP180;40640;48.130;11.356;2022-11-20T13:38:43;95017.00;;;8.80
54746;BMP180;40640;48.130;11.356;2022-11-20T13:42:56;95023.00;;;9.10
54746;BMP180;40640;48.130;11.356;2022-11-20T13:46:59;95006.00;;;8.90
54746;BMP180;40640;48.130;11.356;2022-11-20T13:51:26;95016.00;;;8.80
54746;BMP180;40640;48.130;11.356;2022-11-20T13:55:38;95019.00;;;9.00
54746;BMP180;40640;48.130;11.356;2022-11-20T13:59:50;95003.00;;;9.00
54746;BMP180;40640;48.130;11.356;2022-11-20T14:03:56;95000.00;;;8.90
54746;BMP180;40640;48.130;11.356;2022-11-20T14:08:21;94990.00;;;9.40
54746;BMP180;40640;48.130;11.356;2022-11-20T14:12:30;95002.00;;;9.10
54746;BMP180;40640;48.130;11.356;2022-11-20T14:16:35;95010.00;;;8.90
54746;BMP180;40640;48.130;11.356;2022-11-20T14:20:38;95007.00;;;8.80
54746;BMP180;40640;48.130;11.356;2022-11-20T14:24:41;95012.00;;;8.90
54746;BMP180;40640;48.130;11.356;2022-11-20T14:28:48;95016.00;;;8.90
54746;BMP180;40640;48.130;11.356;2022-11-20T14:32:53;95014.00;;;8.90
54746;BMP180;40640;48.130;11.356;2022-11-20T14:36:58;95015.00;;;8.90
54746;BMP180;40640;48.130;11.356;2022-11-20T14:41:09;95020.00;;;9.00
54746;BMP180;40640;48.130;11.356;2022-11-20T14:45:20;95010.00;;;8.60
54746;BMP180;40640;48.130;11.356;2022-11-20T14:49:24;95015.00;;;8.70
54746;BMP180;40640;48.130;11.356;2022-11-20T14:53:27;95005.00;;;8.50
54746;BMP180;40640;48.130;11.356;2022-11-20T14:57:31;95002.00;;;8.40
54746;BMP180;40640;48.130;11.356;2022-11-20T15:01:35;95013.00;;;8.40
54746;BMP180;40640;48.130;11.356;2022-11-20T15:05:46;95014.00;;;8.30
54746;BMP180;40640;48.130;11.356;2022-11-20T15:09:59;95009.00;;;8.40
54746;BMP180;40640;48.130;11.356;2022-11-20T15:14:03;95013.00;;;8.40
54746;BMP180;40640;48.130;11.356;2022-11-20T15:18:11;95014.00;;;8.30
54746;BMP180;40640;48.130;11.356;2022-11-20T15:22:15;95005.00;;;8.40
54746;BMP180;40640;48.130;11.356;2022-11-20T15:26:22;95012.00;;;8.30
54746;BMP180;40640;48.130;11.356;2022-11-20T15:30:26;95018.00;;;8.40
54746;BMP180;40640;48.130;11.356;2022-11-20T15:34:30;95014.00;;;8.30
54746;BMP180;40640;48.130;11.356;2022-11-20T15:38:33;95011.00;;;8.10
54746;BMP180;40640;48.130;11.356;2022-11-20T15:42:35;95012.00;;;8.10
54746;BMP180;40640;48.130;11.356;2022-11-20T15:46:40;94996.00;;;8.10
54746;BMP180;40640;48.130;11.356;2022-11-20T15:50:50;94992.00;;;7.90
54746;BMP180;40640;48.130;11.356;2022-11-20T15:54:54;94990.00;;;8.00
54746;BMP180;40640;48.130;11.356;2022-11-20T15:58:57;94981.00;;;7.80
54746;BMP180;40640;48.130;11.356;2022-11-20T16:03:00;94978.00;;;7.80
54746;BMP180;40640;48.130;11.356;2022-11-20T16:07:04;94973.00;;;7.80
54746;BMP180;40640;48.130;11.356;2022-11-20T16:11:10;94977.00;;;7.70
54746;BMP180;40640;48.130;11.356;2022-11-20T16:15:14;94978.00;;;7.80
54746;BMP180;40640;48.130;11.356;2022-11-20T16:19:34;94974.00;;;7.80
54746;BMP180;40640;48.130;11.356;2022-11-20T16:23:38;94966.00;;;7.90
54746;BMP180;40640;48.130;11.356;2022-11-20T16:27:41;94969.00;;;7.90
54746;BMP180;40640;48.130;11.356;2022-11-20T16:31:44;94961.00;;;7.70
54746;BMP180;40640;48.130;11.356;2022-11-20T16:35:47;94954.00;;;7.50
54746;BMP180;40640;48.130;11.356;2022-11-20T16:39:51;94952.00;;;7.40
54746;BMP180;40640;48.130;11.356;2022-11-20T16:43:55;94947.00;;;7.40
54746;BMP180;40640;48.130;11.356;2022-11-20T16:48:05;94952.00;;;7.30
54746;BMP180;40640;48.130;11.356;2022-11-20T16:52:07;94950.00;;;7.40
54746;BMP180;40640;48.130;11.356;2022-11-20T16:56:13;94936.00;;;7.30
54746;BMP180;40640;48.130;11.356;2022-11-20T17:00:17;94939.00;;;7.30
54746;BMP180;40640;48.130;11.356;2022-11-20T17:04:20;94937.00;;;7.20
54746;BMP180;40640;48.130;11.356;2022-11-20T17:08:23;94942.00;;;7.40
54746;BMP180;40640;48.130;11.356;2022-11-20T17:12:29;94942.00;;;7.40
54746;BMP180;40640;48.130;11.356;2022-11-20T17:16:33;94936.00;;;7.40
54746;BMP180;40640;48.130;11.356;2022-11-20T17:20:36;94934.00;;;7.30
54746;BMP180;40640;48.130;11.356;2022-11-20T17:24:39;94930.00;;;7.40
54746;BMP180;40640;48.130;11.356;2022-11-20T17:28:43;94927.00;;;7.30
54746;BMP180;40640;48.130;11.356;2022-11-20T17:32:47;94935.00;;;7.20
54746;BMP180;40640;48.130;11.356;2022-11-20T17:36:49;94928.00;;;7.20
54746;BMP180;40640;48.130;11.356;2022-11-20T17:40:52;94925.00;;;7.10
54746;BMP180;40640;48.130;11.356;2022-11-20T17:44:56;94924.00;;;7.10
54746;BMP180;40640;48.130;11.356;2022-11-20T17:49:00;94931.00;;;7.10
54746;BMP180;40640;48.130;11.356;2022-11-20T17:53:03;94924.00;;;7.20
54746;BMP180;40640;48.130;11.356;2022-11-20T17:57:08;94913.00;;;7.20
54746;BMP180;40640;48.130;11.356;2022-11-20T18:01:30;94909.00;;;7.10
54746;BMP180;40640;48.130;11.356;2022-11-20T18:05:33;94917.00;;;7.10
54746;BMP180;40640;48.130;11.356;2022-11-20T18:09:35;94905.00;;;7.10
54746;BMP180;40640;48.130;11.356;2022-11-20T18:13:39;94903.00;;;7.20
54746;BMP180;40640;48.130;11.356;2022-11-20T18:18:01;94903.00;;;7.20
54746;BMP180;40640;48.130;11.356;2022-11-20T18:22:03;94891.00;;;7.20
54746;BMP180;40640;48.130;11.356;2022-11-20T18:26:07;94896.00;;;7.10
54746;BMP180;40640;48.130;11.356;2022-11-20T18:30:11;94885.00;;;7.20
54746;BMP180;40640;48.130;11.356;2022-11-20T18:34:16;94886.00;;;7.10
54746;BMP180;40640;48.130;11.356;2022-11-20T18:38:19;94878.00;;;7.00
54746;BMP180;40640;48.130;11.356;2022-11-20T18:42:21;94874.00;;;6.90
54746;BMP180;40640;48.130;11.356;2022-11-20T18:46:42;94875.00;;;6.80
54746;BMP180;40640;48.130;11.356;2022-11-20T18:50:46;94871.00;;;6.80
54746;BMP180;40640;48.130;11.356;2022-11-20T18:54:50;94874.00;;;6.80
54746;BMP180;40640;48.130;11.356;2022-11-20T18:58:52;94863.00;;;6.80
54746;BMP180;40640;48.130;11.356;2022-11-20T19:03:01;94858.00;;;6.80
54746;BMP180;40640;48.130;11.356;2022-11-20T19:12:41;94852.00;;;6.60
54746;BMP180;40640;48.130;11.356;2022-11-20T19:22:50;94802.00;;;6.60
54746;BMP180;40640;48.130;11.356;2022-11-20T19:42:49;94828.00;;;6.50
54746;BMP180;40640;48.130;11.356;2022-11-20T19:46:52;94828.00;;;6.50
54746;BMP180;40640;48.130;11.356;2022-11-20T19:50:57;94830.00;;;6.40
54746;BMP180;40640;48.130;11.356;2022-11-20T19:55:00;94821.00;;;6.60
54746;BMP180;40640;48.130;11.356;2022-11-20T19:59:04;94818.00;;;6.70
54746;BMP180;40640;48.130;11.356;2022-11-20T20:03:07;94816.00;;;6.70
54746;BMP180;40640;48.130;11.356;2022-11-20T20:07:09;94810.00;;;6.60
54746;BMP180;40640;48.130;11.356;2022-11-20T20:11:13;94814.00;;;6.40
54746;BMP180;40640;48.130;11.356;2022-11-20T20:15:18;94806.00;;;6.50
54746;BMP180;40640;48.130;11.356;2022-11-20T20:19:21;94795.00;;;6.40
54746;BMP180;40640;48.130;11.356;2022-11-20T20:23:24;94800.00;;;6.40
54746;BMP180;40640;48.130;11.356;2022-11-20T20:27:27;94786.00;;;6.30
54746;BMP180;40640;48.130;11.356;2022-11-20T20:31:31;94777.00;;;6.30
54746;BMP180;40640;48.130;11.356;2022-11-20T20:35:39;94787.00;;;6.50
54746;BMP180;40640;48.130;11.356;2022-11-20T20:39:42;94779.00;;;6.30
54746;BMP180;40640;48.130;11.356;2022-11-20T20:43:45;94787.00;;;6.30
54746;BMP180;40640;48.130;11.356;2022-11-20T20:48:06;94784.00;;;6.40
54746;BMP180;40640;48.130;11.356;2022-11-20T20:52:09;94782.00;;;6.40
54746;BMP180;40640;48.130;11.356;2022-11-20T20:56:13;94763.00;;;6.30
54746;BMP180;40640;48.130;11.356;2022-11-20T21:00:16;94784.00;;;6.50
54746;BMP180;40640;48.130;11.356;2022-11-20T21:04:20;94767.00;;;6.30
54746;BMP180;40640;48.130;11.356;2022-11-20T21:08:23;94765.00;;;6.70
54746;BMP180;40640;48.130;11.356;2022-11-20T21:12:28;94773.00;;;7.00
54746;BMP180;40640;48.130;11.356;2022-11-20T21:16:31;94776.00;;;6.70
54746;BMP180;40640;48.130;11.356;2022-11-20T21:20:43;94781.00;;;7.10
54746;BMP180;40640;48.130;11.356;2022-11-20T21:25:04;94797.00;;;7.10
54746;BMP180;40640;48.130;11.356;2022-11-20T21:29:07;94800.00;;;7.20
54746;BMP180;40640;48.130;11.356;2022-11-20T21:33:10;94806.00;;;7.20
54746;BMP180;40640;48.130;11.356;2022-11-20T21:37:14;94816.00;;;7.20
54746;BMP180;40640;48.130;11.356;2022-11-20T21:41:17;94823.00;;;7.20
54746;BMP180;40640;48.130;11.356;2022-11-20T21:45:19;94815.00;;;7.10
54746;BMP180;40640;48.130;11.356;2022-11-20T21:49:23;94811.00;;;7.20
54746;BMP180;40640;48.130;11.356;2022-11-20T21:53:28;94817.00;;;7.20
54746;BMP180;40640;48.130;11.356;2022-11-20T21:57:32;94804.00;;;7.30
54746;BMP180;40640;48.130;11.356;2022-11-20T22:01:35;94812.00;;;7.30
54746;BMP180;40640;48.130;11.356;2022-11-20T22:05:38;94806.00;;;7.40
54746;BMP180;40640;48.130;11.356;2022-11-20T22:09:42;94801.00;;;7.30
54746;BMP180;40640;48.130;11.356;2022-11-20T22:13:46;94801.00;;;7.30
54746;BMP180;40640;48.130;11.356;2022-11-20T22:18:06;94809.00;;;7.50
54746;BMP180;40640;48.130;11.356;2022-11-20T22:22:15;94809.00;;;7.50
54746;BMP180;40640;48.130;11.356;2022-11-20T22:26:22;94809.00;;;7.30
54746;BMP180;40640;48.130;11.356;2022-11-20T22:30:25;94821.00;;;7.70
54746;BMP180;40640;48.130;11.356;2022-11-20T22:34:28;94812.00;;;7.40
54746;BMP180;40640;48.130;11.356;2022-11-20T22:38:31;94812.00;;;7.40
54746;BMP180;40640;48.130;11.356;2022-11-20T22:42:44;94811.00;;;7.40
54746;BMP180;40640;48.130;11.356;2022-11-20T22:46:47;94815.00;;;7.50
54746;BMP180;40640;48.130;11.356;2022-11-20T22:50:50;94833.00;;;7.50
54746;BMP180;40640;48.130;11.356;2022-11-20T22:54:53;94810.00;;;7.10
54746;BMP180;40640;48.130;11.356;2022-11-20T22:58:57;94825.00;;;7.00
54746;BMP180;40640;48.130;11.356;2022-11-20T23:03:00;94814.00;;;7.10
54746;BMP180;40640;48.130;11.356;2022-11-20T23:07:02;94821.00;;;6.90
54746;BMP180;40640;48.130;11.356;2022-11-20T23:11:07;94816.00;;;7.40
54746;BMP180;40640;48.130;11.356;2022-11-20T23:15:12;94824.00;;;7.50
54746;BMP180;40640;48.130;11.356;2022-11-20T23:19:15;94814.00;;;7.50
54746;BMP180;40640;48.130;11.356;2022-11-20T23:23:19;94818.00;;;7.10
54746;BMP180;40640;48.130;11.356;2022-11-20T23:27:22;94817.00;;;7.40
54746;BMP180;40640;48.130;11.356;2022-11-20T23:31:31;94816.00;;;7.20
54746;BMP180;40640;48.130;11.356;2022-11-20T23:35:37;94815.00;;;7.10
54746;BMP180;40640;48.130;11.356;2022-11-20T23:39:40;94808.00;;;7.10
54746;BMP180;40640;48.130;11.356;2022-11-20T23:43:42;94813.00;;;7.10
54746;BMP180;40640;48.130;11.356;2022-11-20T23:47:46;94808.00;;;6.80
54746;BMP180;40640;48.130;11.356;2022-11-20T23:51:49;94806.00;;;6.90
54746;BMP180;40640;48.130;11.356;2022-11-20T23:55:53;94811.00;;;7.30
54746;BMP180;40640;48.130;11.356;2022-11-20T23:59:56;94808.00;;;7.00
